Temp: 15.8°C   Baro: 1012.4mb
  Wind: 15.0mph   Dir: WNW (288°)
  Rain: 2.0mm (0.0mm/hr)
  Solar: 471W/m2  Hum: 71%
 
Bath Spa Weather Station Historical Data
Daily Summary for May 23, 2020 Units:  Metric    English   Both
Daily Weekly Monthly Yearly Custom
  High: Low: Average:
Temperature: 16 °C 9.9 °C 12.7 °C
Dew Point: 9.2 °C 6.2 °C 7.5 °C
Humidity: 81% 55.4% 71%
Wind Speed: 40.2km/h 4km/h 16.3km/h
Wind Gust: 54.7km/h - -
Wind- - West
Pressure: 1027.7 hPa 1018.8 hPa -
Precipitation: 1.52 mm    
Historical Graphs
 
 
Tabular Data for May 23, 2020
Time Temperature Dew Point Pressure Wind Wind Speed Wind Gust Humidity Rainfall Rate (Hourly) solar
00:04 11.8 °C 7.1 °C 1019.2 hPa WSW 14.5 km/h 17.7 km/h 73% 0 mm 0 W/m2
00:09 11.8 °C 7.2 °C 1019.2 hPa SW 9.5 km/h 19.3 km/h 73.6% 0 mm 0 W/m2
00:14 11.7 °C 7.2 °C 1019.2 hPa WSW 8.4 km/h 17.7 km/h 74% 0 mm 0 W/m2
00:19 11.7 °C 7.2 °C 1019.2 hPa SW 10.3 km/h 17.7 km/h 74% 0 mm 0 W/m2
00:24 11.6 °C 7.1 °C 1019.2 hPa WSW 6.4 km/h 16.1 km/h 74% 0 mm 0 W/m2
00:29 11.6 °C 7.1 °C 1019.2 hPa WSW 9.3 km/h 22.5 km/h 74% 0 mm 0 W/m2
00:34 11.4 °C 6.9 °C 1018.8 hPa SW 10 km/h 17.7 km/h 74% 0 mm 0 W/m2
00:39 11.4 °C 7.1 °C 1018.8 hPa WSW 7.9 km/h 20.9 km/h 75% 0 mm 0 W/m2
00:44 11.3 °C 7 °C 1018.8 hPa WSW 7.6 km/h 14.5 km/h 75% 0 mm 0 W/m2
00:49 11.3 °C 7 °C 1018.8 hPa WSW 9.7 km/h 17.7 km/h 75% 0 mm 0 W/m2
00:54 11.3 °C 7 °C 1018.8 hPa WSW 10 km/h 17.7 km/h 75% 0 mm 0 W/m2
00:59 11.2 °C 6.9 °C 1018.8 hPa WSW 10.3 km/h 17.7 km/h 75% 0 mm 0 W/m2
01:04 11.2 °C 6.9 °C 1018.8 hPa SW 11.3 km/h 19.3 km/h 75% 0 mm 0 W/m2
01:09 11.2 °C 6.9 °C 1019.2 hPa WSW 7.2 km/h 17.7 km/h 75% 0 mm 0 W/m2
01:14 11.1 °C 6.8 °C 1019.2 hPa WSW 8 km/h 17.7 km/h 75% 0 mm 0 W/m2
01:19 11.1 °C 6.8 °C 1019.2 hPa WSW 9 km/h 14.5 km/h 75.2% 0 mm 0 W/m2
01:24 11.1 °C 6.9 °C 1019.2 hPa WSW 7.9 km/h 16.1 km/h 76% 0 mm 0 W/m2
01:29 10.9 °C 6.8 °C 1019.2 hPa WSW 5.3 km/h 16.1 km/h 76% 0 mm 0 W/m2
01:34 10.9 °C 6.8 °C 1019.2 hPa WSW 7.9 km/h 17.7 km/h 76% 0 mm 0 W/m2
01:39 10.9 °C 6.8 °C 1019.2 hPa SW 7.6 km/h 17.7 km/h 76% 0 mm 0 W/m2
01:44 10.8 °C 6.7 °C 1019.2 hPa WSW 6.8 km/h 14.5 km/h 76% 0 mm 0 W/m2
01:49 10.8 °C 6.7 °C 1019.2 hPa WSW 9.3 km/h 22.5 km/h 76% 0 mm 0 W/m2
01:54 10.8 °C 6.7 °C 1019.2 hPa SW 7.7 km/h 19.3 km/h 76% 0 mm 0 W/m2
01:59 10.8 °C 6.7 °C 1019.2 hPa WSW 11.3 km/h 20.9 km/h 76% 0 mm 0 W/m2
02:04 10.8 °C 6.8 °C 1019.2 hPa SW 10.9 km/h 16.1 km/h 76.2% 0 mm 0 W/m2
02:09 10.8 °C 6.9 °C 1019.2 hPa WSW 9 km/h 19.3 km/h 77% 0 mm 0 W/m2
02:14 10.7 °C 6.8 °C 1019.2 hPa WSW 9 km/h 20.9 km/h 77% 0 mm 0 W/m2
02:19 10.7 °C 6.8 °C 1019.2 hPa West 10.3 km/h 17.7 km/h 77% 0 mm 0 W/m2
02:24 10.7 °C 6.8 °C 1019.2 hPa SW 8 km/h 19.3 km/h 77% 0 mm 0 W/m2
02:29 10.7 °C 6.8 °C 1018.8 hPa WSW 8.7 km/h 20.9 km/h 77% 0 mm 0 W/m2
02:34 10.7 °C 6.8 °C 1019.2 hPa SW 7.9 km/h 16.1 km/h 77% 0 mm 0 W/m2
02:39 10.7 °C 6.8 °C 1018.8 hPa WSW 5.5 km/h 12.9 km/h 77% 0 mm 0 W/m2
02:43 10.6 °C 6.8 °C 1019.2 hPa WSW 5.1 km/h 14.5 km/h 77.3% 0 mm 0 W/m2
02:49 10.6 °C 6.8 °C 1019.2 hPa WSW 9 km/h 24.1 km/h 77.6% 0 mm 0 W/m2
02:54 10.6 °C 6.9 °C 1019.2 hPa SW 10.6 km/h 16.1 km/h 78% 0 mm 0 W/m2
02:59 10.6 °C 6.9 °C 1019.2 hPa WSW 8.4 km/h 20.9 km/h 78% 0 mm 0 W/m2
03:04 10.6 °C 6.9 °C 1019.2 hPa SSW 8.2 km/h 19.3 km/h 78% 0 mm 0 W/m2
03:09 10.6 °C 6.9 °C 1019.2 hPa SW 11.9 km/h 19.3 km/h 78% 0 mm 0 W/m2
03:14 10.6 °C 6.8 °C 1019.2 hPa WSW 4.5 km/h 12.9 km/h 78% 0 mm 0 W/m2
03:19 10.4 °C 6.8 °C 1019.2 hPa SW 8.4 km/h 14.5 km/h 78% 0 mm 0 W/m2
03:24 10.4 °C 6.7 °C 1019.2 hPa SW 9.3 km/h 14.5 km/h 78% 0 mm 0 W/m2
03:29 10.4 °C 6.7 °C 1019.2 hPa SW 5.3 km/h 17.7 km/h 78% 0 mm 0 W/m2
03:34 10.3 °C 6.7 °C 1019.2 hPa SW 8 km/h 16.1 km/h 78% 0 mm 0 W/m2
03:39 10.3 °C 6.6 °C 1019.2 hPa WSW 7.1 km/h 11.3 km/h 78% 0 mm 0 W/m2
03:44 10.3 °C 6.7 °C 1019.2 hPa SW 8.5 km/h 11.3 km/h 78.2% 0 mm 0 W/m2
03:49 10.3 °C 6.6 °C 1019.2 hPa SW 4 km/h 11.3 km/h 78% 0 mm 0 W/m2
03:54 10.2 °C 6.6 °C 1019.2 hPa SW 5.8 km/h 12.9 km/h 78.6% 0 mm 0 W/m2
03:59 10.2 °C 6.7 °C 1019.2 hPa SW 5.1 km/h 12.9 km/h 79% 0 mm 0 W/m2
04:04 10.2 °C 6.7 °C 1019.2 hPa SW 5.3 km/h 14.5 km/h 79% 0 mm 0 W/m2
04:09 10.2 °C 6.7 °C 1019.2 hPa SW 7.7 km/h 14.5 km/h 79% 0 mm 0 W/m2
04:14 10.2 °C 6.7 °C 1019.2 hPa SW 8.7 km/h 16.1 km/h 79% 0 mm 0 W/m2
04:19 10.2 °C 6.7 °C 1019.2 hPa SW 7.1 km/h 16.1 km/h 79% 0 mm 0 W/m2
04:24 10.2 °C 6.7 °C 1019.5 hPa SW 11.3 km/h 20.9 km/h 79% 0 mm 0 W/m2
04:29 10.2 °C 6.7 °C 1019.5 hPa SW 10.6 km/h 19.3 km/h 79% 0 mm 0 W/m2
04:34 10.1 °C 6.6 °C 1019.5 hPa SW 9.2 km/h 17.7 km/h 79% 0 mm 0 W/m2
04:39 10.1 °C 6.7 °C 1019.5 hPa SW 8.7 km/h 17.7 km/h 79.2% 0 mm 0 W/m2
04:44 10.1 °C 6.8 °C 1019.5 hPa SW 7.6 km/h 17.7 km/h 80% 0 mm 0 W/m2
04:49 10.1 °C 6.8 °C 1019.5 hPa WSW 5.5 km/h 14.5 km/h 80% 0 mm 0 W/m2
04:54 10.1 °C 6.8 °C 1019.5 hPa SW 7.2 km/h 19.3 km/h 80% 0 mm 0 W/m2
04:59 10.1 °C 6.8 °C 1019.5 hPa SW 5.6 km/h 16.1 km/h 80% 0 mm 0 W/m2
05:04 10.1 °C 6.8 °C 1019.5 hPa WSW 9.5 km/h 17.7 km/h 80% 0 mm 0 W/m2
05:09 10.1 °C 6.8 °C 1019.5 hPa SW 6.1 km/h 12.9 km/h 80% 0 mm 5 W/m2
05:14 10.1 °C 6.8 °C 1019.5 hPa SW 7.1 km/h 14.5 km/h 80% 0 mm 5 W/m2
05:19 10 °C 6.7 °C 1019.5 hPa SW 7.6 km/h 14.5 km/h 80% 0 mm 9 W/m2
05:24 9.9 °C 6.7 °C 1019.5 hPa SW 7.2 km/h 12.9 km/h 80% 0 mm 14 W/m2
05:29 9.9 °C 6.6 °C 1019.5 hPa SW 7.4 km/h 14.5 km/h 80% 0 mm 14 W/m2
05:34 9.9 °C 6.6 °C 1019.5 hPa SW 10.8 km/h 17.7 km/h 80% 0 mm 16 W/m2
05:39 9.9 °C 6.6 °C 1019.5 hPa SW 8.7 km/h 17.7 km/h 80% 0 mm 21 W/m2
05:44 9.9 °C 6.6 °C 1019.5 hPa WSW 10.6 km/h 17.7 km/h 80% 0 mm 25 W/m2
05:49 9.9 °C 6.7 °C 1019.5 hPa SW 11.4 km/h 17.7 km/h 80.8% 0 mm 72 W/m2
05:54 9.9 °C 6.8 °C 1019.5 hPa SW 11.4 km/h 19.3 km/h 81% 0 mm 84 W/m2
05:59 10.1 °C 7 °C 1019.5 hPa WSW 10.1 km/h 17.7 km/h 81% 0 mm 26 W/m2
06:04 10.1 °C 7 °C 1019.5 hPa WSW 8.7 km/h 19.3 km/h 81% 0 mm 62 W/m2
06:08 10.1 °C 7 °C 1019.9 hPa WSW 12.1 km/h 19.3 km/h 81% 0 mm 102 W/m2
06:14 10.2 °C 7.1 °C 1019.9 hPa West 9 km/h 20.9 km/h 81% 0 mm 86 W/m2
06:19 10.2 °C 7.2 °C 1019.9 hPa WSW 11.3 km/h 19.3 km/h 81% 0 mm 63 W/m2
06:24 10.3 °C 7.3 °C 1019.9 hPa West 10.9 km/h 20.9 km/h 81% 0 mm 51 W/m2
06:29 10.4 °C 7.3 °C 1019.9 hPa West 10.3 km/h 19.3 km/h 81% 0 mm 60 W/m2
06:34 10.5 °C 7.4 °C 1019.9 hPa WSW 10.9 km/h 16.1 km/h 81% 0 mm 47 W/m2
06:39 10.6 °C 7.4 °C 1019.9 hPa WSW 15.1 km/h 30.6 km/h 80.4% 0 mm 60 W/m2
06:44 10.7 °C 7.3 °C 1020.2 hPa West 10.6 km/h 24.1 km/h 80% 0 mm 76 W/m2
06:49 10.7 °C 7.4 °C 1020.2 hPa WSW 12.6 km/h 24.1 km/h 80% 0 mm 102 W/m2
06:54 10.8 °C 7.6 °C 1020.2 hPa West 11.6 km/h 20.9 km/h 80% 0 mm 148 W/m2
06:59 11 °C 7.6 °C 1020.2 hPa WSW 9 km/h 20.9 km/h 79.6% 0 mm 172 W/m2
07:04 11.2 °C 7.7 °C 1020.2 hPa West 11.9 km/h 17.7 km/h 79% 0 mm 172 W/m2
07:09 11.2 °C 7.7 °C 1020.2 hPa WSW 10 km/h 24.1 km/h 78.8% 0 mm 113 W/m2
07:14 11.1 °C 7.5 °C 1020.2 hPa West 9 km/h 19.3 km/h 78.4% 0 mm 223 W/m2
07:19 11.2 °C 7.5 °C 1020.2 hPa West 11.6 km/h 27.4 km/h 78% 0 mm 209 W/m2
07:23 11.3 °C 7.7 °C 1020.2 hPa West 16.6 km/h 25.7 km/h 78% 0 mm 230 W/m2
07:29 11.4 °C 7.5 °C 1020.2 hPa WSW 14.2 km/h 25.7 km/h 77% 0 mm 195 W/m2
07:34 11.6 °C 7.7 °C 1020.2 hPa WSW 17.1 km/h 33.8 km/h 77% 0 mm 267 W/m2
07:39 11.7 °C 7.6 °C 1020.2 hPa WSW 12.9 km/h 25.7 km/h 76% 0 mm 134 W/m2
07:44 11.8 °C 7.5 °C 1020.2 hPa WSW 16.7 km/h 30.6 km/h 75.2% 0 mm 294 W/m2
07:49 12 °C 7.7 °C 1020.5 hPa West 16.7 km/h 29 km/h 75.2% 0 mm 322 W/m2
07:54 12.1 °C 7.6 °C 1020.5 hPa SW 16.4 km/h 30.6 km/h 74.2% 0 mm 232 W/m2
07:59 12.2 °C 7.6 °C 1020.5 hPa WSW 11.1 km/h 29 km/h 73.2% 0 mm 385 W/m2
08:04 12.6 °C 7.7 °C 1020.5 hPa West 14.8 km/h 29 km/h 72% 0 mm 287 W/m2
08:09 12.7 °C 7.3 °C 1020.5 hPa WNW 17.1 km/h 38.6 km/h 69.6% 0 mm 417 W/m2
08:14 12.5 °C 6.8 °C 1020.5 hPa WNW 25.9 km/h 41.8 km/h 68% 0 mm 223 W/m2
08:19 12.6 °C 7.1 °C 1020.5 hPa West 17.2 km/h 38.6 km/h 69% 0 mm 432 W/m2
08:24 12.8 °C 7.2 °C 1020.5 hPa West 13.2 km/h 35.4 km/h 68.4% 0 mm 501 W/m2
08:29 13 °C 7.1 °C 1020.9 hPa West 14.5 km/h 35.4 km/h 67.6% 0 mm 508 W/m2
08:34 12.9 °C 6.9 °C 1020.9 hPa West 16.7 km/h 30.6 km/h 67% 0 mm 508 W/m2
08:39 13.1 °C 7 °C 1020.9 hPa WNW 16.7 km/h 33.8 km/h 66.6% 0 mm 559 W/m2
08:44 13.4 °C 7.1 °C 1020.5 hPa West 20.3 km/h 33.8 km/h 65.6% 0 mm 559 W/m2
08:49 13.4 °C 7.4 °C 1020.9 hPa West 18 km/h 37 km/h 67% 0 mm 534 W/m2
08:54 13.4 °C 7.4 °C 1020.9 hPa WSW 18 km/h 40.2 km/h 67% 0 mm 621 W/m2
08:59 13.6 °C 7.4 °C 1020.9 hPa West 21.6 km/h 43.5 km/h 66.4% 0 mm 619 W/m2
09:04 13.6 °C 7.5 °C 1020.9 hPa West 20.6 km/h 38.6 km/h 66.8% 0 mm 649 W/m2
09:09 13.7 °C 7.7 °C 1020.9 hPa West 11.1 km/h 33.8 km/h 66.8% 0 mm 649 W/m2
09:14 13.8 °C 7.7 °C 1020.9 hPa West 21.6 km/h 32.2 km/h 66.4% 0 mm 626 W/m2
09:19 13.8 °C 7.7 °C 1020.9 hPa West 21.7 km/h 35.4 km/h 66.4% 0 mm 737 W/m2
09:24 13.8 °C 7.7 °C 1021.2 hPa West 17.5 km/h 37 km/h 66.6% 0 mm 737 W/m2
09:29 13.7 °C 7.7 °C 1021.2 hPa West 11.9 km/h 30.6 km/h 67.2% 0 mm 216 W/m2
09:34 13.8 °C 7.7 °C 1021.2 hPa WSW 19 km/h 30.6 km/h 66.2% 0 mm 693 W/m2
09:39 14 °C 7.7 °C 1021.2 hPa WSW 19.6 km/h 35.4 km/h 66% 0 mm 693 W/m2
09:44 13.8 °C 7.7 °C 1021.2 hPa WSW 20.6 km/h 33.8 km/h 66.5% 0 mm 204 W/m2
09:49 13.6 °C 7.7 °C 1021.2 hPa West 19 km/h 33.8 km/h 67.2% 0 mm 756 W/m2
09:54 13.7 °C 7.9 °C 1021.2 hPa West 18.3 km/h 38.6 km/h 68% 0 mm 756 W/m2
09:59 13.8 °C 7.9 °C 1021.6 hPa West 21.9 km/h 35.4 km/h 68% 0 mm 202 W/m2
10:04 13.5 °C 7.8 °C 1021.6 hPa West 20.9 km/h 45.1 km/h 68.4% 0 mm 330 W/m2
10:09 13.6 °C 7.8 °C 1021.2 hPa WNW 12.1 km/h 48.3 km/h 68% 0 mm 656 W/m2
10:14 14.3 °C 8.3 °C 1021.2 hPa WSW 10.6 km/h 22.5 km/h 67% 0 mm 656 W/m2
10:19 14.2 °C 8.3 °C 1021.6 hPa West 19.3 km/h 45.1 km/h 68% 1.02 mm 656 W/m2
10:24 11.9 °C 7.4 °C 1021.9 hPa WSW 18.7 km/h 45.1 km/h 73.8% 1.52 mm 216 W/m2
10:29 11.4 °C 7.4 °C 1021.6 hPa West 13.5 km/h 35.4 km/h 76.8% 1.52 mm 617 W/m2
10:34 11.9 °C 8.6 °C 1021.6 hPa West 15.8 km/h 35.4 km/h 79.8% 1.52 mm 693 W/m2
10:39 12.5 °C 9.1 °C 1021.2 hPa WNW 10.6 km/h 22.5 km/h 80% 1.52 mm 601 W/m2
10:44 12.6 °C 8.9 °C 1021.2 hPa West 18.3 km/h 33.8 km/h 78.4% 1.52 mm 262 W/m2
10:49 12.5 °C 8.5 °C 1021.6 hPa WNW 18.3 km/h 33.8 km/h 76.6% 1.52 mm 155 W/m2
10:54 12.2 °C 8.1 °C 1021.6 hPa WNW 15.1 km/h 30.6 km/h 76.2% 1.52 mm 754 W/m2
10:59 12.6 °C 8.6 °C 1021.6 hPa WNW 19 km/h 32.2 km/h 76.8% 1.52 mm 816 W/m2
11:04 13.4 °C 9.2 °C 1021.6 hPa WNW 16.9 km/h 37 km/h 75.4% 1.52 mm 907 W/m2
11:09 13.8 °C 8.5 °C 1021.6 hPa NW 21.7 km/h 35.4 km/h 70.5% 1.52 mm 1007 W/m2
11:14 13.9 °C 8.1 °C 1021.9 hPa West 20.9 km/h 45.1 km/h 67.8% 1.52 mm 953 W/m2
11:19 14.1 °C 8.2 °C 1021.9 hPa West 13.5 km/h 33.8 km/h 67.4% 1.52 mm 958 W/m2
11:24 14.2 °C 8 °C 1021.9 hPa WNW 24.1 km/h 48.3 km/h 66.4% 0 mm 958 W/m2
11:29 14.2 °C 8.1 °C 1021.9 hPa West 23.2 km/h 35.4 km/h 66.6% 0 mm 810 W/m2
11:34 14.5 °C 8.2 °C 1021.9 hPa West 16.7 km/h 43.5 km/h 65.8% 0 mm 893 W/m2
11:39 14.6 °C 8.1 °C 1022.2 hPa WNW 29 km/h 46.7 km/h 64.8% 0 mm 840 W/m2
11:44 14.6 °C 8 °C 1022.2 hPa WNW 25.4 km/h 45.1 km/h 64.6% 0 mm 891 W/m2
11:49 14.7 °C 7.8 °C 1022.2 hPa West 23.8 km/h 51.5 km/h 63.2% 0 mm 853 W/m2
11:54 14.8 °C 7.6 °C 1022.2 hPa WSW 20.6 km/h 51.5 km/h 61.6% 0 mm 884 W/m2
11:59 15.1 °C 7.1 °C 1022.2 hPa WNW 27.4 km/h 48.3 km/h 58.8% 0 mm 918 W/m2
12:04 15 °C 7.3 °C 1022.2 hPa West 18.3 km/h 40.2 km/h 59.8% 0 mm 898 W/m2
12:09 15.2 °C 7.4 °C 1022.2 hPa West 24.1 km/h 43.5 km/h 59.8% 0 mm 886 W/m2
12:14 15.3 °C 7.6 °C 1022.2 hPa WNW 25.9 km/h 40.2 km/h 59.8% 0 mm 888 W/m2
12:19 15.1 °C 7 °C 1022.2 hPa WNW 24.8 km/h 41.8 km/h 58.4% 0 mm 918 W/m2
12:24 15.1 °C 6.9 °C 1022.6 hPa WNW 21.2 km/h 48.3 km/h 58.2% 0 mm 923 W/m2
12:29 15.1 °C 6.6 °C 1022.2 hPa WNW 16.1 km/h 41.8 km/h 57% 0 mm 858 W/m2
12:34 15.3 °C 7.1 °C 1022.2 hPa WNW 14.8 km/h 46.7 km/h 58.3% 0 mm 867 W/m2
12:39 15.7 °C 7.6 °C 1022.2 hPa West 17.7 km/h 32.2 km/h 58.6% 0 mm 937 W/m2
12:44 16 °C 7.8 °C 1022.2 hPa WNW 20 km/h 41.8 km/h 58.2% 0 mm 1000 W/m2
12:49 15.4 °C 7.5 °C 1022.2 hPa WNW 26.4 km/h 41.8 km/h 59.2% 0 mm 1000 W/m2
12:54 15.3 °C 7.4 °C 1022.6 hPa WNW 24.8 km/h 45.1 km/h 59.2% 0.25 mm 919 W/m2
12:59 15.6 °C 7.1 °C 1022.2 hPa WNW 29.3 km/h 45.1 km/h 57.2% 0.25 mm 960 W/m2
13:04 15.6 °C 7.3 °C 1022.6 hPa WNW 25.4 km/h 45.1 km/h 57.6% 0.25 mm 960 W/m2
13:09 15.2 °C 6.6 °C 1022.6 hPa WNW 26.4 km/h 43.5 km/h 56.2% 0.25 mm 998 W/m2
13:14 15.1 °C 6.2 °C 1022.6 hPa WNW 21.6 km/h 49.9 km/h 55.4% 0.25 mm 884 W/m2
13:19 15.3 °C 6.8 °C 1022.6 hPa West 21.2 km/h 41.8 km/h 57.2% 0.25 mm 954 W/m2
13:24 15.4 °C 7.2 °C 1022.9 hPa West 24.8 km/h 41.8 km/h 58% 0.25 mm 997 W/m2
13:29 15.6 °C 7.2 °C 1022.9 hPa NW 26.1 km/h 43.5 km/h 57.4% 0.25 mm 974 W/m2
13:34 15.5 °C 7.3 °C 1022.9 hPa West 22.9 km/h 53.1 km/h 58% 0.25 mm 926 W/m2
13:38 15.5 °C 7.1 °C 1022.9 hPa WNW 26.9 km/h 43.5 km/h 57.3% 0.25 mm 912 W/m2
13:44 15.6 °C 7.3 °C 1022.9 hPa WNW 19 km/h 43.5 km/h 58% 0.25 mm 940 W/m2
13:49 15.4 °C 7.4 °C 1022.9 hPa WNW 26.7 km/h 45.1 km/h 59.2% 0.25 mm 1023 W/m2
13:54 15.2 °C 7.5 °C 1022.9 hPa WNW 26.1 km/h 46.7 km/h 60.2% 0.25 mm 1023 W/m2
13:59 14.8 °C 7.9 °C 1023.2 hPa WNW 23.5 km/h 46.7 km/h 63.4% 0 mm 418 W/m2
14:04 14.5 °C 7.3 °C 1023.2 hPa WNW 28.6 km/h 54.7 km/h 62.2% 0 mm 489 W/m2
14:09 14.2 °C 6.8 °C 1023.6 hPa West 22.9 km/h 54.7 km/h 61.2% 0 mm 476 W/m2
14:14 14.1 °C 7.2 °C 1023.6 hPa WNW 25.7 km/h 40.2 km/h 63% 0 mm 452 W/m2
14:19 14.5 °C 7.3 °C 1023.6 hPa West 19.3 km/h 45.1 km/h 61.8% 0 mm 1034 W/m2
14:24 14.6 °C 7.3 °C 1023.6 hPa West 24.5 km/h 49.9 km/h 61.6% 0 mm 376 W/m2
14:29 14.7 °C 7.3 °C 1023.6 hPa WNW 23.7 km/h 45.1 km/h 61.2% 0 mm 981 W/m2
14:34 15.1 °C 7.5 °C 1023.2 hPa West 31.2 km/h 49.9 km/h 60.4% 0 mm 912 W/m2
14:39 15.4 °C 7.6 °C 1023.2 hPa WSW 24.8 km/h 38.6 km/h 59.8% 0 mm 1000 W/m2
14:44 15.3 °C 7.2 °C 1023.2 hPa West 30.6 km/h 53.1 km/h 58.2% 0 mm 990 W/m2
14:49 15 °C 7.3 °C 1023.6 hPa WNW 28.2 km/h 49.9 km/h 59.8% 0 mm 905 W/m2
14:54 15 °C 7.7 °C 1023.6 hPa WNW 25.7 km/h 53.1 km/h 61.8% 0 mm 831 W/m2
14:59 15.3 °C 7.6 °C 1023.6 hPa WNW 21.6 km/h 43.5 km/h 60% 0 mm 819 W/m2
15:04 15.4 °C 7.1 °C 1024.3 hPa WNW 32.5 km/h 54.7 km/h 57.8% 0 mm 837 W/m2
15:09 15.1 °C 6.7 °C 1023.9 hPa West 24.8 km/h 54.7 km/h 57.2% 0 mm 847 W/m2
15:14 15.2 °C 7 °C 1023.9 hPa West 29.6 km/h 48.3 km/h 58.2% 0 mm 833 W/m2
15:19 15.2 °C 6.8 °C 1023.9 hPa WNW 30.3 km/h 48.3 km/h 57.5% 0 mm 830 W/m2
15:24 15 °C 6.6 °C 1023.9 hPa NW 26.4 km/h 54.7 km/h 57.2% 0 mm 809 W/m2
15:29 15.2 °C 7 °C 1023.9 hPa WNW 25.4 km/h 54.7 km/h 57.8% 0 mm 795 W/m2
15:34 15.3 °C 7.2 °C 1023.9 hPa WNW 21.6 km/h 46.7 km/h 58.8% 0 mm 838 W/m2
15:39 15.6 °C 7.6 °C 1024.3 hPa West 19.3 km/h 43.5 km/h 59.2% 0 mm 821 W/m2
15:44 15.4 °C 7.3 °C 1023.9 hPa West 21.4 km/h 41.8 km/h 58.3% 0 mm 826 W/m2
15:49 15.5 °C 7.3 °C 1024.3 hPa West 23.8 km/h 43.5 km/h 58% 0 mm 809 W/m2
15:54 15.3 °C 7.2 °C 1024.3 hPa West 31.9 km/h 43.5 km/h 58.6% 0 mm 807 W/m2
15:59 15.2 °C 6.9 °C 1024.3 hPa West 27 km/h 46.7 km/h 57.6% 0 mm 773 W/m2
16:04 15.2 °C 7.2 °C 1024.6 hPa WNW 30.9 km/h 51.5 km/h 59% 0 mm 807 W/m2
16:09 15.3 °C 7.9 °C 1024.6 hPa West 20 km/h 37 km/h 61.2% 0 mm 807 W/m2
16:14 15.5 °C 8.2 °C 1024.6 hPa WNW 18 km/h 41.8 km/h 62% 0 mm 833 W/m2
16:19 15.6 °C 8.3 °C 1024.6 hPa WSW 22.9 km/h 48.3 km/h 62% 0 mm 805 W/m2
16:23 15.3 °C 8.2 °C 1024.6 hPa West 22.9 km/h 46.7 km/h 62.8% 0 mm 756 W/m2
16:29 14.8 °C 8 °C 1024.6 hPa WNW 20.9 km/h 45.1 km/h 63.8% 0 mm 703 W/m2
16:34 14.7 °C 7.8 °C 1024.6 hPa WNW 19 km/h 46.7 km/h 63.6% 0 mm 703 W/m2
16:39 14.9 °C 7.9 °C 1024.6 hPa WNW 19.3 km/h 45.1 km/h 62.8% 0 mm 659 W/m2
16:44 14.7 °C 7.8 °C 1024.6 hPa WNW 25.3 km/h 45.1 km/h 63.4% 0 mm 178 W/m2
16:49 14.5 °C 7.6 °C 1024.9 hPa NW 25.4 km/h 48.3 km/h 63.4% 0 mm 274 W/m2
16:53 14.4 °C 7.4 °C 1024.6 hPa WNW 27.7 km/h 45.1 km/h 63% 0 mm 661 W/m2
16:59 14.7 °C 7.5 °C 1024.9 hPa West 22.7 km/h 45.1 km/h 62.2% 0 mm 615 W/m2
17:04 14.6 °C 7.3 °C 1024.9 hPa West 40.2 km/h 51.5 km/h 61.8% 0 mm 589 W/m2
17:09 14.6 °C 7.1 °C 1024.9 hPa WNW 25.4 km/h 51.5 km/h 60.6% 0 mm 570 W/m2
17:14 14.5 °C 7.1 °C 1025.3 hPa WNW 30.9 km/h 46.7 km/h 60.8% 0 mm 584 W/m2
17:19 14.4 °C 6.9 °C 1024.9 hPa West 28.8 km/h 51.5 km/h 60.8% 0 mm 566 W/m2
17:24 14.4 °C 7.2 °C 1024.9 hPa West 31.9 km/h 48.3 km/h 61.6% 0 mm 547 W/m2
17:29 14.3 °C 7.3 °C 1024.9 hPa West 20.3 km/h 43.5 km/h 62.8% 0 mm 527 W/m2
17:34 14.3 °C 7.4 °C 1025.3 hPa WNW 26.7 km/h 45.1 km/h 63.2% 0 mm 515 W/m2
17:39 14.3 °C 7.3 °C 1025.3 hPa West 24.6 km/h 46.7 km/h 62.8% 0 mm 503 W/m2
17:44 14.3 °C 7.4 °C 1025.3 hPa WNW 20.8 km/h 49.9 km/h 63.2% 0 mm 489 W/m2
17:49 14.1 °C 7.7 °C 1025.6 hPa West 21.9 km/h 43.5 km/h 65.4% 0 mm 499 W/m2
17:54 13.9 °C 7.8 °C 1025.3 hPa WNW 21.4 km/h 40.2 km/h 66.6% 0 mm 504 W/m2
17:59 14.1 °C 8 °C 1025.3 hPa WNW 20.8 km/h 37 km/h 66.8% 0 mm 503 W/m2
18:04 14.4 °C 8.1 °C 1025.3 hPa West 15.4 km/h 38.6 km/h 66.2% 0 mm 441 W/m2
18:09 14.1 °C 8.1 °C 1025.6 hPa WNW 17.4 km/h 46.7 km/h 67% 0 mm 501 W/m2
18:14 13.8 °C 8.1 °C 1025.3 hPa West 14.5 km/h 43.5 km/h 68% 0 mm 457 W/m2
18:19 13.6 °C 7.8 °C 1025.6 hPa West 22.5 km/h 40.2 km/h 68% 0 mm 234 W/m2
18:24 13.5 °C 7.8 °C 1025.6 hPa WNW 20.9 km/h 40.2 km/h 68.6% 0 mm 153 W/m2
18:29 13.3 °C 7.8 °C 1025.6 hPa West 15.8 km/h 40.2 km/h 69.2% 0 mm 311 W/m2
18:34 13.4 °C 7.9 °C 1025.3 hPa West 21.2 km/h 45.1 km/h 70% 0 mm 336 W/m2
18:39 13.2 °C 7.8 °C 1025.6 hPa West 15.9 km/h 37 km/h 70% 0 mm 274 W/m2
18:44 13.2 °C 7.8 °C 1025.6 hPa West 23.5 km/h 43.5 km/h 70% 0 mm 211 W/m2
18:49 13.1 °C 7.8 °C 1025.6 hPa West 19.3 km/h 41.8 km/h 70.4% 0 mm 109 W/m2
18:54 12.9 °C 7.8 °C 1025.6 hPa WNW 19.6 km/h 38.6 km/h 71% 0 mm 91 W/m2
18:59 12.8 °C 7.9 °C 1025.6 hPa WNW 24.5 km/h 40.2 km/h 72% 0 mm 67 W/m2
19:04 12.8 °C 7.9 °C 1025.6 hPa WNW 18.5 km/h 41.8 km/h 72% 0 mm 70 W/m2
19:09 12.8 °C 7.9 °C 1026 hPa West 16.7 km/h 46.7 km/h 72% 0 mm 83 W/m2
19:14 12.7 °C 7.9 °C 1026 hPa West 17.4 km/h 46.7 km/h 72.8% 0 mm 76 W/m2
19:19 12.7 °C 8 °C 1025.6 hPa West 23.5 km/h 40.2 km/h 73% 0 mm 97 W/m2
19:24 12.7 °C 8 °C 1025.6 hPa WNW 17.1 km/h 37 km/h 73% 0 mm 95 W/m2
19:29 12.7 °C 8 °C 1025.6 hPa WNW 23.8 km/h 38.6 km/h 73% 0 mm 97 W/m2
19:34 12.6 °C 8.1 °C 1025.6 hPa WNW 20.3 km/h 38.6 km/h 74% 0 mm 88 W/m2
19:39 12.7 °C 8.2 °C 1026 hPa WNW 14.2 km/h 35.4 km/h 74% 0 mm 81 W/m2
19:44 12.6 °C 8.1 °C 1026 hPa WNW 19.2 km/h 37 km/h 73.8% 0 mm 70 W/m2
19:49 12.6 °C 8.1 °C 1026 hPa WNW 19 km/h 32.2 km/h 74% 0 mm 49 W/m2
19:54 12.5 °C 8 °C 1026.3 hPa West 20.3 km/h 37 km/h 74% 0 mm 47 W/m2
19:59 12.5 °C 8.2 °C 1026.3 hPa West 15.3 km/h 33.8 km/h 74.8% 0 mm 53 W/m2
20:04 12.4 °C 8.1 °C 1026.3 hPa West 17.4 km/h 35.4 km/h 75% 0 mm 58 W/m2
20:09 12.4 °C 8.1 °C 1026.3 hPa WNW 18 km/h 30.6 km/h 75% 0 mm 49 W/m2
20:14 12.4 °C 8.1 °C 1026.3 hPa WNW 20.3 km/h 30.6 km/h 75% 0 mm 51 W/m2
20:19 12.4 °C 8.1 °C 1026.3 hPa West 12.6 km/h 30.6 km/h 75% 0 mm 56 W/m2
20:24 12.4 °C 8.1 °C 1026.3 hPa WNW 12.2 km/h 37 km/h 75% 0 mm 54 W/m2
20:29 12.4 °C 8.1 °C 1026.3 hPa West 17.1 km/h 37 km/h 75% 0 mm 42 W/m2
20:34 12.3 °C 8 °C 1026.3 hPa West 10.5 km/h 30.6 km/h 75% 0 mm 23 W/m2
20:39 12.3 °C 7.9 °C 1026.3 hPa West 13.2 km/h 35.4 km/h 75% 0 mm 19 W/m2
20:44 12.2 °C 7.8 °C 1026.3 hPa West 12.1 km/h 35.4 km/h 75% 0 mm 16 W/m2
20:49 12.1 °C 7.8 °C 1026.6 hPa West 20.6 km/h 33.8 km/h 75% 0 mm 11 W/m2
20:54 12.1 °C 8 °C 1026.6 hPa WNW 14.2 km/h 32.2 km/h 76% 0 mm 7 W/m2
20:58 12 °C 7.9 °C 1026.6 hPa WNW 14.6 km/h 29 km/h 76% 0 mm 5 W/m2
21:04 12 °C 7.9 °C 1026.6 hPa West 19.3 km/h 33.8 km/h 76% 0 mm 0 W/m2
21:09 11.9 °C 7.8 °C 1026.6 hPa West 16.1 km/h 30.6 km/h 76% 0 mm 0 W/m2
21:14 11.9 °C 7.8 °C 1026.6 hPa West 15.8 km/h 33.8 km/h 76% 0 mm 0 W/m2
21:19 11.9 °C 7.8 °C 1026.6 hPa West 16.3 km/h 27.4 km/h 76% 0 mm 0 W/m2
21:24 11.9 °C 7.8 °C 1026.6 hPa WNW 14.5 km/h 29 km/h 76% 0 mm 0 W/m2
21:29 11.8 °C 7.9 °C 1026.6 hPa West 12.2 km/h 25.7 km/h 76.6% 0 mm 0 W/m2
21:34 11.8 °C 7.9 °C 1026.6 hPa West 10.8 km/h 27.4 km/h 77% 0 mm 0 W/m2
21:39 11.8 °C 8 °C 1027 hPa WNW 12.9 km/h 24.1 km/h 77.6% 0 mm 0 W/m2
21:44 11.7 °C 8 °C 1027 hPa West 14.5 km/h 20.9 km/h 78% 0 mm 0 W/m2
21:49 11.7 °C 8 °C 1027 hPa West 14.8 km/h 27.4 km/h 78% 0 mm 0 W/m2
21:54 11.7 °C 8 °C 1027 hPa West 14.2 km/h 30.6 km/h 78% 0 mm 0 W/m2
21:59 11.7 °C 8 °C 1027 hPa WNW 14.2 km/h 25.7 km/h 78% 0 mm 0 W/m2
22:04 11.8 °C 8.1 °C 1027 hPa West 10.1 km/h 25.7 km/h 78% 0 mm 0 W/m2
22:09 11.8 °C 8.2 °C 1027 hPa NW 15.4 km/h 25.7 km/h 78.8% 0 mm 0 W/m2
22:14 11.8 °C 8.3 °C 1027 hPa WNW 15.1 km/h 29 km/h 79% 0 mm 0 W/m2
22:19 11.8 °C 8.3 °C 1027 hPa West 17.5 km/h 27.4 km/h 79% 0 mm 0 W/m2
22:24 11.8 °C 8.3 °C 1027.3 hPa West 15.4 km/h 29 km/h 79% 0 mm 0 W/m2
22:29 11.8 °C 8.3 °C 1027.3 hPa WNW 16.1 km/h 29 km/h 79% 0 mm 0 W/m2
22:34 11.9 °C 8.4 °C 1027.3 hPa West 9.3 km/h 29 km/h 79% 0 mm 0 W/m2
22:39 11.8 °C 8.3 °C 1027.3 hPa West 13.2 km/h 29 km/h 79% 0 mm 0 W/m2
22:44 11.9 °C 8.4 °C 1027.3 hPa West 12.4 km/h 30.6 km/h 79% 0 mm 0 W/m2
22:48 11.9 °C 8.4 °C 1027.3 hPa WNW 15.8 km/h 30.6 km/h 79% 0 mm 0 W/m2
22:54 11.9 °C 8.4 °C 1027.3 hPa West 7.7 km/h 22.5 km/h 79% 0 mm 0 W/m2
22:59 11.8 °C 8.3 °C 1027.3 hPa WNW 13.2 km/h 27.4 km/h 79% 0 mm 0 W/m2
23:04 11.8 °C 8.3 °C 1027.3 hPa WNW 15.9 km/h 30.6 km/h 79% 0 mm 0 W/m2
23:09 11.8 °C 8.3 °C 1027.3 hPa WNW 12.2 km/h 22.5 km/h 79% 0 mm 0 W/m2
23:14 11.8 °C 8.3 °C 1027.3 hPa WNW 15.8 km/h 22.5 km/h 79% 0 mm 0 W/m2
23:19 11.8 °C 8.3 °C 1027.7 hPa WNW 14.2 km/h 22.5 km/h 79% 0 mm 0 W/m2
23:24 11.9 °C 8.4 °C 1027.7 hPa WNW 10.5 km/h 22.5 km/h 79% 0 mm 0 W/m2
23:29 11.9 °C 8.4 °C 1027.7 hPa West 11.3 km/h 24.1 km/h 79% 0 mm 0 W/m2
23:34 11.9 °C 8.4 °C 1027.7 hPa WNW 14.5 km/h 22.5 km/h 79% 0 mm 0 W/m2
23:39 11.9 °C 8.4 °C 1027.7 hPa West 11.3 km/h 22.5 km/h 79% 0 mm 0 W/m2
23:44 11.9 °C 8.5 °C 1027.7 hPa WNW 10.9 km/h 22.5 km/h 79.4% 0 mm 0 W/m2
23:49 11.9 °C 8.6 °C 1027.7 hPa WNW 9.8 km/h 22.5 km/h 80% 0 mm 0 W/m2
23:54 11.9 °C 8.6 °C 1027.7 hPa WNW 11.3 km/h 20.9 km/h 80% 0 mm 0 W/m2
23:59 11.9 °C 8.6 °C 1027.7 hPa WNW 9 km/h 22.5 km/h 80% 0 mm 0 W/m2
Bath Spa Weather
Compliments of Weather Underground - 2 mb